Dewees Island, South Carolina
Current Conditions -  °F | °C
As of 8:15 AM on Sunday 23 Nov 2014 (Local Time) from KLRO Reporting Station
Overcast Overcast  
Wind Chill: 59°   Ceiling: 200
Heat Index: 59°   Visibility: 1mi
Dew Point: 59°   Wind: 6mph
Humidity: 100%   Direction: 30°NNE
Pressure: 30.15"   Gusts: NA
Location:  32.8046°N, 79.7534°W
Report Text: KLRO 231315Z AUTO 03005KT 1SM BKN002 OVC021 15/15 A3015 RMK AO2 PWINO PNO
Loading
Personal Weather Stations






























Interactive Weather Map New forecast layout! Learn more

10-Day Weather Forecast

Advertisements
Track Severe Weather on mobile